Lakeport, New Hampshire
Current Conditions -  °F | °C
As of 1:15 AM on Wednesday 22 Oct 2014 (Local Time) from KLCI Reporting Station
Overcast Overcast  
Wind Chill: 41°   Ceiling: 1700
Heat Index: 46°   Visibility: 9mi
Dew Point: 43°   Wind: 10mph
Humidity: 87%   Direction: 70°ENE
Pressure: 30.04"   Gusts: NA
Location:  43.5478°N, 71.4074°W
Report Text: KLCI 220515Z AUTO 07009KT 9SM BKN017 OVC023 08/06 A3004 RMK AO1
Loading
Personal Weather Stations






























Interactive Weather Map
Tropical Storm Tracking
New forecast layout! Learn more

10-Day Weather Forecast

Advertisements
Track Severe Weather on mobile